createdAt,value
2017-09-19T00:01:07.736Z,11.70
2017-09-19T00:03:36.013Z,11.70
2017-09-19T00:06:04.272Z,11.60
2017-09-19T00:08:32.600Z,11.60
2017-09-19T00:11:00.970Z,11.50
2017-09-19T00:13:29.217Z,11.50
2017-09-19T00:15:57.543Z,11.50
2017-09-19T00:18:25.798Z,11.30
2017-09-19T00:20:54.113Z,11.20
2017-09-19T00:23:22.460Z,11.10
2017-09-19T00:25:50.747Z,11.00
2017-09-19T00:28:19.112Z,11.10
2017-09-19T00:30:47.537Z,11.00
2017-09-19T00:33:16.551Z,11.00
2017-09-19T00:35:44.837Z,11.00
2017-09-19T00:38:13.102Z,11.00
2017-09-19T00:40:41.373Z,11.00
2017-09-19T00:43:09.637Z,11.10
2017-09-19T00:45:38.689Z,11.00
2017-09-19T00:48:07.089Z,11.00
2017-09-19T00:50:35.550Z,11.00
2017-09-19T00:53:03.828Z,11.00
2017-09-19T00:55:32.089Z,11.00
2017-09-19T00:58:00.357Z,10.90
2017-09-19T01:00:28.670Z,10.90
2017-09-19T01:02:56.966Z,10.90
2017-09-19T01:05:25.310Z,10.80
2017-09-19T01:07:53.586Z,10.70
2017-09-19T01:10:21.876Z,10.60
2017-09-19T01:12:51.649Z,10.50
2017-09-19T01:15:19.937Z,10.50
2017-09-19T01:17:48.239Z,10.50
2017-09-19T01:20:16.608Z,10.50
2017-09-19T01:22:44.864Z,10.60
2017-09-19T01:25:13.148Z,10.60
2017-09-19T01:27:41.453Z,10.70
2017-09-19T01:30:10.499Z,10.70
2017-09-19T01:32:38.783Z,10.70
2017-09-19T01:35:07.062Z,10.70
2017-09-19T01:37:35.377Z,10.80
2017-09-19T01:40:03.654Z,10.80
2017-09-19T01:42:31.923Z,10.80
2017-09-19T01:45:00.210Z,10.70
2017-09-19T01:47:28.685Z,10.70
2017-09-19T01:49:56.934Z,10.70
2017-09-19T01:52:25.234Z,10.70
2017-09-19T01:54:53.517Z,10.70
2017-09-19T01:57:21.784Z,10.70
2017-09-19T01:59:50.174Z,10.70
2017-09-19T02:02:19.267Z,10.50
2017-09-19T02:04:47.648Z,10.50
2017-09-19T02:07:15.925Z,10.60
2017-09-19T02:09:44.381Z,10.60
2017-09-19T02:12:12.646Z,10.50
2017-09-19T02:14:40.925Z,10.50
2017-09-19T02:17:09.204Z,10.50
2017-09-19T02:19:37.477Z,10.40
2017-09-19T02:22:05.893Z,10.40
2017-09-19T02:24:34.168Z,10.40
2017-09-19T02:27:02.466Z,10.30
2017-09-19T02:29:30.746Z,10.30
2017-09-19T02:31:59.019Z,10.30
2017-09-19T02:34:27.410Z,10.20
2017-09-19T02:36:56.469Z,10.20
2017-09-19T02:39:24.763Z,10.20
2017-09-19T02:41:53.849Z,10.20
2017-09-19T02:44:22.253Z,10.20
2017-09-19T02:46:50.522Z,10.20
2017-09-19T02:49:18.879Z,10.20
2017-09-19T02:51:47.158Z,10.20
2017-09-19T02:54:15.437Z,10.20
2017-09-19T02:56:43.713Z,10.20
2017-09-19T02:59:12.002Z,10.20
2017-09-19T03:01:40.474Z,10.20
2017-09-19T03:04:08.755Z,10.20
2017-09-19T03:06:37.037Z,10.30
2017-09-19T03:09:05.312Z,10.20
2017-09-19T03:11:33.600Z,10.20
2017-09-19T03:14:01.959Z,10.10
2017-09-19T03:16:30.253Z,10.10
2017-09-19T03:18:58.513Z,10.10
2017-09-19T03:21:26.816Z,10.10
2017-09-19T03:23:55.069Z,10.10
2017-09-19T03:26:23.340Z,10.10
2017-09-19T03:28:51.828Z,10.00
2017-09-19T03:31:20.075Z,10.10
2017-09-19T03:33:48.386Z,10.10
2017-09-19T03:36:16.657Z,10.00
2017-09-19T03:38:44.939Z,10.10
2017-09-19T03:41:13.200Z,10.10
2017-09-19T03:43:41.713Z,10.10
2017-09-19T03:46:10.090Z,10.10
2017-09-19T03:48:40.111Z,10.00
2017-09-19T03:51:08.464Z,10.00
2017-09-19T03:53:36.709Z,10.00
2017-09-19T03:56:05.026Z,10.00
2017-09-19T03:58:33.324Z,10.00
2017-09-19T04:01:01.617Z,9.90
2017-09-19T04:03:29.962Z,10.00
2017-09-19T04:05:58.336Z,9.80
2017-09-19T04:08:26.597Z,9.80
2017-09-19T04:10:54.900Z,9.80
2017-09-19T04:13:23.168Z,9.70
2017-09-19T04:15:51.548Z,9.50
2017-09-19T04:18:19.792Z,9.50
2017-09-19T04:20:48.069Z,9.40
2017-09-19T04:23:16.345Z,9.40
2017-09-19T04:25:44.609Z,9.40
2017-09-19T04:28:12.913Z,9.40
2017-09-19T04:30:41.160Z,9.30
2017-09-19T04:33:09.482Z,9.30
2017-09-19T04:35:38.764Z,9.30
2017-09-19T04:38:07.028Z,9.30
2017-09-19T04:40:35.280Z,9.30
2017-09-19T04:43:04.334Z,9.40
2017-09-19T04:45:32.604Z,9.30
2017-09-19T04:48:00.904Z,9.40
2017-09-19T04:50:29.982Z,9.40
2017-09-19T04:52:58.234Z,9.50
2017-09-19T04:55:26.515Z,9.50
2017-09-19T04:57:54.798Z,9.60
2017-09-19T05:00:23.082Z,9.60
2017-09-19T05:02:51.344Z,9.60
2017-09-19T05:05:19.898Z,9.50
2017-09-19T05:07:48.148Z,9.60
2017-09-19T05:10:17.199Z,9.70
2017-09-19T05:12:45.457Z,9.60
2017-09-19T05:15:13.749Z,9.70
2017-09-19T05:17:42.173Z,9.70
2017-09-19T05:20:10.512Z,9.70
2017-09-19T05:22:38.803Z,9.70
2017-09-19T05:25:07.080Z,9.70
2017-09-19T05:27:35.358Z,9.70
2017-09-19T05:30:03.637Z,9.70
2017-09-19T05:32:31.920Z,9.70
2017-09-19T05:35:00.189Z,9.80
2017-09-19T05:37:28.507Z,9.90
2017-09-19T05:39:56.883Z,9.90
2017-09-19T05:42:26.050Z,9.90
2017-09-19T05:44:54.314Z,9.90
2017-09-19T05:47:22.604Z,9.90
2017-09-19T05:49:52.416Z,9.90
2017-09-19T05:52:20.697Z,9.90
2017-09-19T05:54:48.969Z,10.00
2017-09-19T05:57:18.065Z,10.00
2017-09-19T05:59:46.437Z,10.00
2017-09-19T06:02:14.697Z,10.00
2017-09-19T06:04:43.021Z,10.00
2017-09-19T06:07:12.118Z,10.10
2017-09-19T06:09:41.181Z,10.10
2017-09-19T06:12:09.474Z,10.10
2017-09-19T06:14:38.520Z,10.30
2017-09-19T06:17:06.807Z,10.20
2017-09-19T06:19:35.105Z,10.40
2017-09-19T06:22:03.490Z,10.50
2017-09-19T06:24:31.770Z,10.50
2017-09-19T06:27:01.606Z,10.60
2017-09-19T06:29:29.863Z,10.60
2017-09-19T06:31:58.939Z,10.70
2017-09-19T06:34:27.211Z,10.70
2017-09-19T06:36:55.510Z,10.70
2017-09-19T06:39:23.786Z,10.70
2017-09-19T06:41:52.164Z,10.80
2017-09-19T06:44:20.440Z,10.80
2017-09-19T06:46:48.721Z,10.90
2017-09-19T06:49:17.010Z,11.00
2017-09-19T06:51:45.270Z,11.20
2017-09-19T06:54:13.576Z,11.30
2017-09-19T06:56:42.640Z,11.40
2017-09-19T06:59:11.024Z,11.40
2017-09-19T07:01:39.424Z,11.50
2017-09-19T07:04:07.700Z,11.50
2017-09-19T07:06:35.990Z,11.60
2017-09-19T07:09:05.082Z,11.70
2017-09-19T07:11:34.142Z,11.80
2017-09-19T07:14:02.416Z,11.80
2017-09-19T07:16:30.727Z,11.90
2017-09-19T07:18:59.776Z,12.10
2017-09-19T07:21:28.050Z,12.10
2017-09-19T07:23:56.364Z,12.20
2017-09-19T07:26:24.732Z,12.30
2017-09-19T07:28:53.111Z,12.40
2017-09-19T07:31:21.386Z,12.50
2017-09-19T07:33:49.679Z,12.50
2017-09-19T07:36:17.941Z,12.70
2017-09-19T07:38:46.319Z,12.70
2017-09-19T07:41:14.701Z,12.80
2017-09-19T07:43:42.964Z,12.90
2017-09-19T07:46:11.264Z,13.00
2017-09-19T07:48:39.529Z,13.10
2017-09-19T07:51:07.813Z,13.10
2017-09-19T07:53:36.079Z,13.20
2017-09-19T07:56:04.369Z,13.30
2017-09-19T07:58:32.628Z,13.40
2017-09-19T08:01:00.923Z,13.50
2017-09-19T08:03:29.191Z,13.80
2017-09-19T08:05:57.584Z,13.90
2017-09-19T08:08:25.981Z,14.00
2017-09-19T08:10:55.052Z,14.10
2017-09-19T08:13:23.433Z,14.10
2017-09-19T08:15:51.809Z,14.20
2017-09-19T08:18:20.193Z,14.30
2017-09-19T08:20:49.967Z,14.40
2017-09-19T08:23:18.306Z,14.40
2017-09-19T08:25:46.653Z,14.60
2017-09-19T08:28:14.957Z,14.70
2017-09-19T08:30:43.989Z,14.70
2017-09-19T08:33:12.305Z,14.70
2017-09-19T08:35:40.584Z,14.70
2017-09-19T08:38:08.871Z,14.70
2017-09-19T08:40:37.177Z,14.80
2017-09-19T08:43:06.197Z,14.90
2017-09-19T08:45:34.532Z,14.90
2017-09-19T08:48:02.784Z,15.10
2017-09-19T08:50:31.064Z,15.20
2017-09-19T08:52:59.339Z,15.30
2017-09-19T08:55:27.722Z,15.30
2017-09-19T08:57:55.976Z,15.40
2017-09-19T09:00:24.238Z,15.40
2017-09-19T09:02:52.550Z,15.50
2017-09-19T09:05:20.824Z,15.60
2017-09-19T09:07:49.216Z,15.60
2017-09-19T09:10:17.473Z,15.60
2017-09-19T09:12:45.761Z,15.70
2017-09-19T09:15:14.036Z,15.70
2017-09-19T09:17:42.417Z,15.70
2017-09-19T09:20:10.691Z,15.70
2017-09-19T09:22:38.988Z,15.80
2017-09-19T09:25:07.265Z,15.90
2017-09-19T09:27:35.624Z,16.00
2017-09-19T09:30:04.108Z,16.10
2017-09-19T09:32:32.357Z,16.20
2017-09-19T09:35:00.639Z,16.30
2017-09-19T09:37:28.917Z,16.40
2017-09-19T09:39:57.235Z,16.40
2017-09-19T09:42:25.509Z,16.40
2017-09-19T09:44:53.792Z,16.40
2017-09-19T09:47:22.085Z,16.40
2017-09-19T09:49:51.137Z,16.40
2017-09-19T09:52:19.437Z,16.30
2017-09-19T09:54:47.739Z,16.40
2017-09-19T09:57:16.790Z,16.30
2017-09-19T09:59:45.089Z,16.30
2017-09-19T10:02:13.460Z,16.50
2017-09-19T10:04:41.746Z,16.60
2017-09-19T10:07:10.029Z,16.70
2017-09-19T10:09:38.293Z,16.90
2017-09-19T10:12:06.663Z,17.20
2017-09-19T10:14:34.925Z,17.20
2017-09-19T10:17:03.224Z,17.10
2017-09-19T10:19:31.517Z,16.90
2017-09-19T10:21:59.798Z,16.90
2017-09-19T10:24:28.858Z,16.80
2017-09-19T10:26:57.131Z,16.70
2017-09-19T10:29:25.432Z,16.80
2017-09-19T10:31:53.709Z,17.00
2017-09-19T10:34:21.993Z,17.30
2017-09-19T10:36:50.356Z,17.50
2017-09-19T10:39:18.741Z,17.60
2017-09-19T10:41:47.022Z,17.80
2017-09-19T10:44:15.289Z,17.90
2017-09-19T10:46:43.682Z,18.10
2017-09-19T10:49:11.951Z,18.10
2017-09-19T10:51:40.237Z,18.10
2017-09-19T10:54:08.509Z,17.90
2017-09-19T10:56:36.876Z,17.90
2017-09-19T10:59:05.145Z,18.00
2017-09-19T11:01:33.532Z,18.20
2017-09-19T11:04:01.801Z,18.10
2017-09-19T11:06:30.185Z,18.40
2017-09-19T11:08:58.441Z,18.50
2017-09-19T11:11:26.701Z,18.60
2017-09-19T11:13:54.989Z,18.50
2017-09-19T11:16:23.260Z,18.40
2017-09-19T11:18:51.548Z,18.10
2017-09-19T11:21:19.815Z,17.80
2017-09-19T11:23:48.147Z,17.70
2017-09-19T11:26:16.441Z,17.70
2017-09-19T11:28:45.523Z,17.60
2017-09-19T11:31:13.782Z,17.50
2017-09-19T11:33:42.158Z,17.60
2017-09-19T11:36:10.526Z,17.70
2017-09-19T11:38:39.557Z,18.10
2017-09-19T11:41:08.621Z,18.60
2017-09-19T11:43:36.896Z,18.50
2017-09-19T11:46:05.179Z,19.00
2017-09-19T11:48:33.474Z,19.20
2017-09-19T11:51:01.791Z,19.40
2017-09-19T11:53:30.112Z,19.70
2017-09-19T11:55:58.418Z,19.80
2017-09-19T11:58:27.454Z,20.40
2017-09-19T12:00:55.727Z,20.40
2017-09-19T12:03:24.009Z,20.60
2017-09-19T12:05:52.331Z,20.70
2017-09-19T12:08:20.635Z,20.80
2017-09-19T12:10:49.712Z,20.80
2017-09-19T12:13:18.791Z,20.30
2017-09-19T12:15:47.164Z,20.30
2017-09-19T12:18:15.476Z,20.20
2017-09-19T12:20:44.525Z,19.90
2017-09-19T12:23:12.916Z,19.80
2017-09-19T12:25:41.297Z,19.70
2017-09-19T12:28:09.573Z,19.60
2017-09-19T12:30:37.888Z,19.40
2017-09-19T12:33:06.949Z,19.10
2017-09-19T12:35:35.326Z,19.00
2017-09-19T12:38:03.606Z,18.80
2017-09-19T12:40:31.912Z,18.60
2017-09-19T12:43:00.973Z,18.90
2017-09-19T12:45:29.260Z,18.80
2017-09-19T12:47:57.543Z,19.20
2017-09-19T12:50:25.807Z,19.20
2017-09-19T12:52:54.090Z,19.30
2017-09-19T12:55:22.347Z,19.30
2017-09-19T12:57:50.645Z,19.10
2017-09-19T13:00:18.903Z,19.10
2017-09-19T13:02:47.207Z,19.40
2017-09-19T13:05:15.577Z,19.60
2017-09-19T13:07:43.840Z,19.60
2017-09-19T13:10:12.225Z,19.80
2017-09-19T13:12:40.506Z,20.10
2017-09-19T13:15:08.782Z,20.40
2017-09-19T13:17:37.052Z,19.80
2017-09-19T13:20:05.358Z,19.70
2017-09-19T13:22:33.637Z,19.90
2017-09-19T13:25:01.914Z,20.20
2017-09-19T13:27:30.193Z,20.20
2017-09-19T13:29:59.236Z,20.20
2017-09-19T13:32:39.442Z,20.20
2017-09-19T13:35:07.700Z,20.40
2017-09-19T13:37:36.105Z,20.60
2017-09-19T13:40:05.162Z,20.60
2017-09-19T13:42:33.443Z,20.60
2017-09-19T13:45:01.759Z,21.40
2017-09-19T13:47:30.095Z,22.00
2017-09-19T13:49:58.375Z,22.00
2017-09-19T13:52:26.680Z,21.70
2017-09-19T13:54:54.958Z,21.30
2017-09-19T13:57:23.220Z,20.80
2017-09-19T13:59:51.551Z,20.70
2017-09-19T14:02:19.816Z,20.70
2017-09-19T14:04:48.145Z,20.70
2017-09-19T14:07:16.404Z,20.60
2017-09-19T14:09:44.797Z,20.70
2017-09-19T14:12:13.885Z,21.20
2017-09-19T14:14:42.288Z,21.40
2017-09-19T14:17:10.623Z,21.30
2017-09-19T14:19:38.881Z,21.60
2017-09-19T14:22:07.171Z,23.30
2017-09-19T14:24:35.481Z,24.30
2017-09-19T14:27:03.968Z,23.50
2017-09-19T14:29:32.221Z,24.00
2017-09-19T14:32:00.526Z,22.90
2017-09-19T14:34:28.901Z,24.00
2017-09-19T14:36:57.181Z,23.70
2017-09-19T14:39:25.451Z,23.30
2017-09-19T14:41:53.748Z,21.90
2017-09-19T14:44:22.034Z,21.80
2017-09-19T14:46:51.059Z,20.90
2017-09-19T14:49:19.335Z,20.90
2017-09-19T14:51:47.594Z,20.60
2017-09-19T14:54:16.641Z,20.10
2017-09-19T14:56:44.920Z,20.10
2017-09-19T14:59:13.321Z,19.70
2017-09-19T15:01:41.586Z,19.50
2017-09-19T15:04:09.902Z,19.20
2017-09-19T15:06:38.941Z,18.60
2017-09-19T15:09:07.235Z,18.60
2017-09-19T15:11:35.520Z,18.50
2017-09-19T15:14:03.799Z,18.40
2017-09-19T15:16:32.077Z,18.30
2017-09-19T15:19:00.353Z,18.30
2017-09-19T15:21:28.726Z,18.10
2017-09-19T15:23:57.010Z,18.00
2017-09-19T15:26:25.332Z,17.90
2017-09-19T15:28:53.611Z,17.90
2017-09-19T15:31:21.941Z,17.70
2017-09-19T15:33:50.259Z,17.70
2017-09-19T15:36:18.537Z,17.70
2017-09-19T15:38:46.871Z,17.60
2017-09-19T15:41:15.146Z,17.60
2017-09-19T15:43:43.533Z,17.50
2017-09-19T15:46:11.808Z,17.30
2017-09-19T15:51:14.814Z,17.20
2017-09-19T15:53:43.190Z,17.30
2017-09-19T15:56:11.447Z,17.20
2017-09-19T15:58:39.729Z,17.00
2017-09-19T16:01:08.006Z,17.00
2017-09-19T16:03:36.271Z,16.80
2017-09-19T16:06:04.553Z,16.90
2017-09-19T16:08:32.860Z,16.80
2017-09-19T16:11:01.145Z,16.70
2017-09-19T16:13:29.417Z,16.70
2017-09-19T16:15:57.736Z,16.70
2017-09-19T16:18:26.773Z,16.70
2017-09-19T16:20:55.047Z,16.70
2017-09-19T16:23:23.334Z,16.60
2017-09-19T16:25:51.605Z,16.50
2017-09-19T16:28:19.983Z,16.50
2017-09-19T16:30:48.375Z,16.50
2017-09-19T16:33:16.655Z,16.40
2017-09-19T16:35:45.735Z,16.40
2017-09-19T16:38:14.044Z,16.40
2017-09-19T16:40:43.211Z,16.40
2017-09-19T16:43:11.461Z,16.40
2017-09-19T16:45:39.766Z,16.30
2017-09-19T16:48:08.033Z,16.30
2017-09-19T16:50:36.322Z,16.30
2017-09-19T16:53:04.712Z,16.30
2017-09-19T16:55:32.993Z,16.30
2017-09-19T16:58:01.364Z,16.20
2017-09-19T17:00:29.733Z,16.10
2017-09-19T17:02:58.025Z,16.10
2017-09-19T17:05:26.402Z,16.10
2017-09-19T17:07:54.687Z,16.00
2017-09-19T17:10:23.001Z,15.90
2017-09-19T17:12:51.269Z,15.90
2017-09-19T17:15:19.537Z,15.90
2017-09-19T17:17:48.798Z,15.90
2017-09-19T17:20:17.080Z,15.80
2017-09-19T17:22:45.370Z,15.90
2017-09-19T17:25:13.646Z,15.80
2017-09-19T17:27:41.947Z,15.80
2017-09-19T17:30:10.982Z,15.70
2017-09-19T17:32:39.274Z,15.70
2017-09-19T17:35:07.545Z,15.70
2017-09-19T17:37:35.849Z,15.70
2017-09-19T17:40:04.888Z,15.60
2017-09-19T17:42:33.155Z,15.60
2017-09-19T17:45:01.445Z,15.70
2017-09-19T17:47:29.716Z,15.70
2017-09-19T17:49:58.014Z,15.70
2017-09-19T17:52:26.297Z,15.70
2017-09-19T17:54:54.569Z,15.60
2017-09-19T17:57:22.845Z,15.60
2017-09-19T17:59:51.242Z,15.60
2017-09-19T18:02:19.501Z,15.60
2017-09-19T18:04:47.801Z,15.60
2017-09-19T18:07:16.062Z,15.60
2017-09-19T18:09:44.445Z,15.70
2017-09-19T18:12:12.720Z,15.60
2017-09-19T18:14:41.009Z,15.70
2017-09-19T18:17:09.297Z,15.70
2017-09-19T18:19:37.561Z,15.70
2017-09-19T18:22:05.951Z,15.80
2017-09-19T18:24:34.198Z,15.80
2017-09-19T18:27:02.485Z,15.80
2017-09-19T18:29:30.752Z,15.80
2017-09-19T18:31:59.157Z,15.80
2017-09-19T18:34:27.423Z,15.70
2017-09-19T18:36:55.738Z,15.70
2017-09-19T18:39:24.786Z,15.60
2017-09-19T18:41:53.065Z,15.60
2017-09-19T18:44:21.343Z,15.60
2017-09-19T18:46:49.633Z,15.60
2017-09-19T18:49:18.001Z,15.60
2017-09-19T18:51:46.277Z,15.50
2017-09-19T18:54:14.582Z,15.50
2017-09-19T18:56:43.650Z,15.50
2017-09-19T18:59:12.038Z,15.40
2017-09-19T19:01:40.306Z,15.50
2017-09-19T19:04:08.642Z,15.50
2017-09-19T19:06:36.971Z,15.50
2017-09-19T19:09:05.233Z,15.40
2017-09-19T19:11:33.633Z,15.30
2017-09-19T19:14:01.908Z,15.30
2017-09-19T19:16:30.197Z,15.30
2017-09-19T19:18:58.469Z,15.30
2017-09-19T19:21:26.757Z,15.30
2017-09-19T19:23:55.796Z,15.30
2017-09-19T19:26:24.083Z,15.20
2017-09-19T19:28:52.353Z,15.30
2017-09-19T19:31:20.640Z,15.30
2017-09-19T19:33:48.916Z,15.20
2017-09-19T19:36:17.300Z,15.10
2017-09-19T19:38:45.616Z,15.10
2017-09-19T19:41:14.702Z,15.00
2017-09-19T19:43:42.971Z,15.10
2017-09-19T19:46:11.257Z,15.00
2017-09-19T19:48:39.650Z,15.00
2017-09-19T19:51:07.905Z,14.90
2017-09-19T19:53:36.230Z,14.80
2017-09-19T19:56:05.281Z,14.70
2017-09-19T19:58:33.575Z,14.70
2017-09-19T20:01:01.891Z,14.70
2017-09-19T20:03:30.970Z,14.60
2017-09-19T20:05:59.233Z,14.60
2017-09-19T20:08:27.532Z,14.50
2017-09-19T20:10:55.824Z,14.50
2017-09-19T20:13:24.110Z,14.50
2017-09-19T20:15:52.489Z,14.40
2017-09-19T20:18:20.769Z,14.40
2017-09-19T20:20:49.137Z,14.40
2017-09-19T20:23:17.620Z,14.30
2017-09-19T20:25:46.014Z,14.30
2017-09-19T20:28:14.396Z,14.30
2017-09-19T20:30:42.686Z,14.20
2017-09-19T20:33:10.962Z,14.20
2017-09-19T20:35:39.284Z,14.10
2017-09-19T20:38:08.345Z,14.00
2017-09-19T20:40:36.620Z,14.00
2017-09-19T20:43:05.001Z,14.00
2017-09-19T20:45:33.273Z,14.00
2017-09-19T20:48:01.776Z,14.00
2017-09-19T20:50:30.028Z,14.00
2017-09-19T20:52:58.320Z,13.90
2017-09-19T20:55:26.604Z,13.80
2017-09-19T20:57:54.882Z,13.80
2017-09-19T21:00:23.156Z,13.80
2017-09-19T21:02:52.489Z,13.70
2017-09-19T21:05:26.505Z,13.80
2017-09-19T21:08:00.463Z,13.70
2017-09-19T21:10:34.609Z,13.70
2017-09-19T21:13:08.502Z,13.60
2017-09-19T21:15:43.358Z,13.50
2017-09-19T21:18:17.363Z,13.40
2017-09-19T21:20:45.687Z,13.40
2017-09-19T21:23:14.080Z,13.40
2017-09-19T21:25:42.342Z,13.40
2017-09-19T21:28:10.650Z,13.40
2017-09-19T21:30:38.932Z,13.40
2017-09-19T21:33:09.988Z,13.40
2017-09-19T21:35:39.783Z,13.40
2017-09-19T21:38:08.342Z,13.40
2017-09-19T21:40:37.546Z,13.40
2017-09-19T21:43:07.418Z,13.30
2017-09-19T21:45:36.666Z,13.30
2017-09-19T21:48:04.942Z,13.30
2017-09-19T21:50:33.238Z,13.30
2017-09-19T21:53:01.617Z,13.20
2017-09-19T21:55:29.914Z,13.20
2017-09-19T21:57:58.198Z,13.20
2017-09-19T22:00:27.267Z,13.20
2017-09-19T22:02:55.574Z,13.10
2017-09-19T22:05:24.630Z,13.10
2017-09-19T22:07:52.917Z,13.10
2017-09-19T22:10:21.193Z,13.10
2017-09-19T22:12:49.671Z,13.10
2017-09-19T22:15:18.043Z,13.10
2017-09-19T22:17:46.334Z,13.20
2017-09-19T22:20:14.605Z,13.10
2017-09-19T22:22:42.881Z,13.10
2017-09-19T22:25:11.161Z,13.20
2017-09-19T22:27:39.430Z,13.20
2017-09-19T22:30:07.721Z,13.10
2017-09-19T22:32:35.998Z,13.10
2017-09-19T22:35:04.290Z,13.10
2017-09-19T22:37:33.334Z,13.00
2017-09-19T22:40:01.649Z,13.00
2017-09-19T22:42:29.930Z,13.00
2017-09-19T22:44:58.209Z,13.00
2017-09-19T22:47:26.590Z,12.90
2017-09-19T22:49:56.202Z,12.90
2017-09-19T22:52:26.627Z,12.90
2017-09-19T22:54:55.075Z,12.80
2017-09-19T22:57:23.355Z,12.80
2017-09-19T22:59:51.644Z,12.80
2017-09-19T23:02:19.996Z,12.70
2017-09-19T23:04:48.291Z,12.70
2017-09-19T23:07:16.566Z,12.60
2017-09-19T23:09:44.857Z,12.70
2017-09-19T23:12:13.889Z,12.60
2017-09-19T23:14:42.222Z,12.60
2017-09-19T23:17:11.281Z,12.50
2017-09-19T23:19:39.585Z,12.50
2017-09-19T23:22:08.625Z,12.50
2017-09-19T23:24:36.928Z,12.50
2017-09-19T23:27:05.307Z,12.50
2017-09-19T23:29:33.572Z,12.50
2017-09-19T23:32:01.865Z,12.40
2017-09-19T23:34:30.124Z,12.30
2017-09-19T23:36:58.423Z,12.30
2017-09-19T23:39:26.834Z,12.30
2017-09-19T23:41:55.885Z,12.30
2017-09-19T23:44:24.273Z,12.30
2017-09-19T23:46:52.585Z,12.40
2017-09-19T23:49:21.642Z,12.30
2017-09-19T23:51:49.920Z,12.30
2017-09-19T23:54:18.213Z,12.30
2017-09-19T23:56:46.488Z,12.30
2017-09-19T23:59:14.849Z,12.30
